sensor_id;sensor_type;location;lat;lon;timestamp;P1;durP1;ratioP1;P2;durP2;ratioP2
31424;SDS011;18054;51.572;7.372;2023-04-24T00:02:34;3.60;;;0.70;;
31424;SDS011;18054;51.572;7.372;2023-04-24T00:05:04;1.83;;;0.50;;
31424;SDS011;18054;51.572;7.372;2023-04-24T00:07:32;3.65;;;0.63;;
31424;SDS011;18054;51.572;7.372;2023-04-24T00:09:59;1.45;;;0.60;;
31424;SDS011;18054;51.572;7.372;2023-04-24T00:12:27;1.45;;;0.65;;
31424;SDS011;18054;51.572;7.372;2023-04-24T00:14:54;2.05;;;0.75;;
31424;SDS011;18054;51.572;7.372;2023-04-24T00:17:22;1.23;;;0.68;;
31424;SDS011;18054;51.572;7.372;2023-04-24T00:19:51;5.65;;;1.02;;
31424;SDS011;18054;51.572;7.372;2023-04-24T00:22:24;4.30;;;0.60;;
31424;SDS011;18054;51.572;7.372;2023-04-24T00:24:51;2.40;;;0.93;;
31424;SDS011;18054;51.572;7.372;2023-04-24T00:27:19;2.17;;;1.27;;
31424;SDS011;18054;51.572;7.372;2023-04-24T00:29:46;3.70;;;0.80;;
31424;SDS011;18054;51.572;7.372;2023-04-24T00:32:14;2.65;;;0.77;;
31424;SDS011;18054;51.572;7.372;2023-04-24T00:34:42;2.35;;;0.70;;
31424;SDS011;18054;51.572;7.372;2023-04-24T00:39:39;3.78;;;0.90;;
31424;SDS011;18054;51.572;7.372;2023-04-24T00:42:07;1.73;;;0.70;;
31424;SDS011;18054;51.572;7.372;2023-04-24T00:44:34;5.50;;;0.93;;
31424;SDS011;18054;51.572;7.372;2023-04-24T00:49:29;2.50;;;0.93;;
31424;SDS011;18054;51.572;7.372;2023-04-24T00:51:56;3.88;;;0.93;;
31424;SDS011;18054;51.572;7.372;2023-04-24T00:54:25;1.60;;;0.77;;
31424;SDS011;18054;51.572;7.372;2023-04-24T00:56:54;9.45;;;1.30;;
31424;SDS011;18054;51.572;7.372;2023-04-24T00:59:23;4.80;;;1.02;;
31424;SDS011;18054;51.572;7.372;2023-04-24T01:04:41;6.70;;;1.10;;
31424;SDS011;18054;51.572;7.372;2023-04-24T01:09:37;2.47;;;0.95;;
31424;SDS011;18054;51.572;7.372;2023-04-24T01:12:08;3.40;;;1.05;;
31424;SDS011;18054;51.572;7.372;2023-04-24T01:14:36;3.00;;;1.20;;
31424;SDS011;18054;51.572;7.372;2023-04-24T01:21:59;5.68;;;1.20;;
31424;SDS011;18054;51.572;7.372;2023-04-24T01:24:30;4.10;;;1.30;;
31424;SDS011;18054;51.572;7.372;2023-04-24T01:26:57;4.85;;;1.20;;
31424;SDS011;18054;51.572;7.372;2023-04-24T01:29:25;4.60;;;1.20;;
31424;SDS011;18054;51.572;7.372;2023-04-24T01:31:52;2.90;;;1.10;;
31424;SDS011;18054;51.572;7.372;2023-04-24T01:34:20;2.33;;;1.20;;
31424;SDS011;18054;51.572;7.372;2023-04-24T01:36:48;3.28;;;1.45;;
31424;SDS011;18054;51.572;7.372;2023-04-24T01:39:16;4.72;;;1.50;;
31424;SDS011;18054;51.572;7.372;2023-04-24T01:41:47;2.97;;;1.50;;
31424;SDS011;18054;51.572;7.372;2023-04-24T01:44:18;2.53;;;1.50;;
31424;SDS011;18054;51.572;7.372;2023-04-24T01:46:45;2.53;;;1.50;;
31424;SDS011;18054;51.572;7.372;2023-04-24T01:49:15;3.53;;;1.50;;
31424;SDS011;18054;51.572;7.372;2023-04-24T01:51:44;5.82;;;1.42;;
31424;SDS011;18054;51.572;7.372;2023-04-24T01:54:11;3.20;;;1.45;;
31424;SDS011;18054;51.572;7.372;2023-04-24T01:56:40;6.13;;;2.17;;
31424;SDS011;18054;51.572;7.372;2023-04-24T01:59:10;9.07;;;2.13;;
31424;SDS011;18054;51.572;7.372;2023-04-24T02:01:38;3.88;;;1.80;;
31424;SDS011;18054;51.572;7.372;2023-04-24T02:06:34;6.43;;;2.63;;
31424;SDS011;18054;51.572;7.372;2023-04-24T02:09:02;5.47;;;2.17;;
31424;SDS011;18054;51.572;7.372;2023-04-24T02:11:30;4.32;;;1.88;;
31424;SDS011;18054;51.572;7.372;2023-04-24T02:13:57;5.95;;;1.85;;
31424;SDS011;18054;51.572;7.372;2023-04-24T02:16:27;7.45;;;2.10;;
31424;SDS011;18054;51.572;7.372;2023-04-24T02:18:56;5.30;;;2.40;;
31424;SDS011;18054;51.572;7.372;2023-04-24T02:21:24;8.68;;;2.30;;
31424;SDS011;18054;51.572;7.372;2023-04-24T02:23:51;6.00;;;2.10;;
31424;SDS011;18054;51.572;7.372;2023-04-24T02:26:19;3.65;;;2.28;;
31424;SDS011;18054;51.572;7.372;2023-04-24T02:28:46;5.68;;;2.65;;
31424;SDS011;18054;51.572;7.372;2023-04-24T02:31:14;3.95;;;2.08;;
31424;SDS011;18054;51.572;7.372;2023-04-24T02:33:42;8.55;;;2.50;;
31424;SDS011;18054;51.572;7.372;2023-04-24T02:36:10;9.15;;;2.78;;
31424;SDS011;18054;51.572;7.372;2023-04-24T02:38:37;9.40;;;3.03;;
31424;SDS011;18054;51.572;7.372;2023-04-24T02:41:05;8.25;;;4.03;;
31424;SDS011;18054;51.572;7.372;2023-04-24T02:43:33;8.38;;;4.68;;
31424;SDS011;18054;51.572;7.372;2023-04-24T02:46:00;11.02;;;5.25;;
31424;SDS011;18054;51.572;7.372;2023-04-24T02:48:28;11.05;;;5.00;;
31424;SDS011;18054;51.572;7.372;2023-04-24T02:50:57;10.38;;;5.38;;
31424;SDS011;18054;51.572;7.372;2023-04-24T02:53:24;15.73;;;5.90;;
31424;SDS011;18054;51.572;7.372;2023-04-24T02:55:52;11.43;;;6.20;;
31424;SDS011;18054;51.572;7.372;2023-04-24T02:58:19;15.40;;;6.03;;
31424;SDS011;18054;51.572;7.372;2023-04-24T03:00:47;13.27;;;6.53;;
31424;SDS011;18054;51.572;7.372;2023-04-24T03:03:14;12.45;;;7.03;;
31424;SDS011;18054;51.572;7.372;2023-04-24T03:05:42;15.15;;;6.65;;
31424;SDS011;18054;51.572;7.372;2023-04-24T03:08:11;20.23;;;7.82;;
31424;SDS011;18054;51.572;7.372;2023-04-24T03:10:38;11.57;;;6.75;;
31424;SDS011;18054;51.572;7.372;2023-04-24T03:13:07;13.70;;;7.13;;
31424;SDS011;18054;51.572;7.372;2023-04-24T03:15:34;14.30;;;7.07;;
31424;SDS011;18054;51.572;7.372;2023-04-24T03:18:02;16.25;;;7.35;;
31424;SDS011;18054;51.572;7.372;2023-04-24T03:20:29;17.60;;;8.60;;
31424;SDS011;18054;51.572;7.372;2023-04-24T03:22:57;16.63;;;8.15;;
31424;SDS011;18054;51.572;7.372;2023-04-24T03:25:26;23.27;;;9.13;;
31424;SDS011;18054;51.572;7.372;2023-04-24T03:27:54;15.60;;;8.30;;
31424;SDS011;18054;51.572;7.372;2023-04-24T03:30:40;18.30;;;8.67;;
31424;SDS011;18054;51.572;7.372;2023-04-24T03:33:09;16.73;;;8.70;;
31424;SDS011;18054;51.572;7.372;2023-04-24T03:35:43;14.15;;;8.20;;
31424;SDS011;18054;51.572;7.372;2023-04-24T03:41:02;16.30;;;7.93;;
31424;SDS011;18054;51.572;7.372;2023-04-24T03:43:40;16.77;;;8.50;;
31424;SDS011;18054;51.572;7.372;2023-04-24T03:46:08;13.57;;;8.15;;
31424;SDS011;18054;51.572;7.372;2023-04-24T03:48:44;17.83;;;8.38;;
31424;SDS011;18054;51.572;7.372;2023-04-24T03:51:12;14.65;;;8.45;;
31424;SDS011;18054;51.572;7.372;2023-04-24T03:53:43;18.83;;;9.82;;
31424;SDS011;18054;51.572;7.372;2023-04-24T03:56:15;20.95;;;10.05;;
31424;SDS011;18054;51.572;7.372;2023-04-24T03:58:43;16.60;;;8.95;;
31424;SDS011;18054;51.572;7.372;2023-04-24T04:01:10;15.25;;;9.35;;
31424;SDS011;18054;51.572;7.372;2023-04-24T04:03:45;17.58;;;9.43;;
31424;SDS011;18054;51.572;7.372;2023-04-24T04:06:16;16.38;;;9.32;;
31424;SDS011;18054;51.572;7.372;2023-04-24T04:08:45;18.80;;;9.32;;
31424;SDS011;18054;51.572;7.372;2023-04-24T04:11:13;17.45;;;9.68;;
31424;SDS011;18054;51.572;7.372;2023-04-24T04:13:41;18.48;;;10.27;;
31424;SDS011;18054;51.572;7.372;2023-04-24T04:16:09;21.15;;;9.82;;
31424;SDS011;18054;51.572;7.372;2023-04-24T04:18:37;18.55;;;9.15;;
31424;SDS011;18054;51.572;7.372;2023-04-24T04:21:06;18.23;;;10.05;;
31424;SDS011;18054;51.572;7.372;2023-04-24T04:23:33;25.05;;;10.35;;
31424;SDS011;18054;51.572;7.372;2023-04-24T04:26:07;17.60;;;10.00;;
31424;SDS011;18054;51.572;7.372;2023-04-24T04:29:05;16.83;;;10.45;;
31424;SDS011;18054;51.572;7.372;2023-04-24T04:31:36;19.27;;;10.50;;
31424;SDS011;18054;51.572;7.372;2023-04-24T04:34:09;19.10;;;9.88;;
31424;SDS011;18054;51.572;7.372;2023-04-24T04:36:38;16.98;;;9.57;;
31424;SDS011;18054;51.572;7.372;2023-04-24T04:39:21;17.75;;;9.45;;
31424;SDS011;18054;51.572;7.372;2023-04-24T04:42:15;21.67;;;11.13;;
31424;SDS011;18054;51.572;7.372;2023-04-24T04:44:44;17.73;;;9.93;;
31424;SDS011;18054;51.572;7.372;2023-04-24T04:47:17;21.50;;;10.07;;
31424;SDS011;18054;51.572;7.372;2023-04-24T04:49:45;16.48;;;10.18;;
31424;SDS011;18054;51.572;7.372;2023-04-24T04:52:18;25.92;;;10.45;;
31424;SDS011;18054;51.572;7.372;2023-04-24T04:54:50;23.20;;;9.88;;
31424;SDS011;18054;51.572;7.372;2023-04-24T04:57:19;17.30;;;10.38;;
31424;SDS011;18054;51.572;7.372;2023-04-24T04:59:48;18.83;;;8.13;;
31424;SDS011;18054;51.572;7.372;2023-04-24T05:02:25;19.70;;;10.50;;
31424;SDS011;18054;51.572;7.372;2023-04-24T05:04:53;19.20;;;11.48;;
31424;SDS011;18054;51.572;7.372;2023-04-24T05:07:21;20.90;;;9.20;;
31424;SDS011;18054;51.572;7.372;2023-04-24T05:09:51;19.38;;;10.60;;
31424;SDS011;18054;51.572;7.372;2023-04-24T05:12:18;16.77;;;9.82;;
31424;SDS011;18054;51.572;7.372;2023-04-24T05:14:52;20.35;;;10.07;;
31424;SDS011;18054;51.572;7.372;2023-04-24T05:17:19;22.30;;;10.05;;
31424;SDS011;18054;51.572;7.372;2023-04-24T05:19:47;18.85;;;10.07;;
31424;SDS011;18054;51.572;7.372;2023-04-24T05:22:15;20.63;;;10.60;;
31424;SDS011;18054;51.572;7.372;2023-04-24T05:24:49;26.50;;;9.73;;
31424;SDS011;18054;51.572;7.372;2023-04-24T05:27:34;16.55;;;9.00;;
31424;SDS011;18054;51.572;7.372;2023-04-24T05:30:08;17.17;;;9.75;;
31424;SDS011;18054;51.572;7.372;2023-04-24T05:32:36;16.13;;;9.98;;
31424;SDS011;18054;51.572;7.372;2023-04-24T05:35:04;19.27;;;9.70;;
31424;SDS011;18054;51.572;7.372;2023-04-24T05:37:31;16.50;;;7.85;;
31424;SDS011;18054;51.572;7.372;2023-04-24T05:39:59;13.20;;;8.13;;
31424;SDS011;18054;51.572;7.372;2023-04-24T05:42:26;17.13;;;8.60;;
31424;SDS011;18054;51.572;7.372;2023-04-24T05:44:56;15.75;;;7.75;;
31424;SDS011;18054;51.572;7.372;2023-04-24T05:47:24;16.58;;;8.50;;
31424;SDS011;18054;51.572;7.372;2023-04-24T05:49:53;13.20;;;7.68;;
31424;SDS011;18054;51.572;7.372;2023-04-24T05:52:20;13.38;;;7.10;;
31424;SDS011;18054;51.572;7.372;2023-04-24T05:54:48;12.70;;;7.43;;
31424;SDS011;18054;51.572;7.372;2023-04-24T05:57:21;11.63;;;7.03;;
31424;SDS011;18054;51.572;7.372;2023-04-24T05:59:52;14.07;;;7.45;;
31424;SDS011;18054;51.572;7.372;2023-04-24T06:02:21;14.52;;;7.55;;
31424;SDS011;18054;51.572;7.372;2023-04-24T06:04:51;18.63;;;7.95;;
31424;SDS011;18054;51.572;7.372;2023-04-24T06:07:18;12.82;;;7.35;;
31424;SDS011;18054;51.572;7.372;2023-04-24T06:09:46;10.00;;;6.97;;
31424;SDS011;18054;51.572;7.372;2023-04-24T06:12:14;17.58;;;8.57;;
31424;SDS011;18054;51.572;7.372;2023-04-24T06:14:56;14.38;;;7.68;;
31424;SDS011;18054;51.572;7.372;2023-04-24T06:17:41;15.13;;;8.00;;
31424;SDS011;18054;51.572;7.372;2023-04-24T06:22:38;19.92;;;8.75;;
31424;SDS011;18054;51.572;7.372;2023-04-24T06:25:06;15.63;;;8.40;;
31424;SDS011;18054;51.572;7.372;2023-04-24T06:27:34;12.40;;;8.00;;
31424;SDS011;18054;51.572;7.372;2023-04-24T06:30:02;13.48;;;7.22;;
31424;SDS011;18054;51.572;7.372;2023-04-24T06:32:29;15.85;;;8.13;;
31424;SDS011;18054;51.572;7.372;2023-04-24T06:34:58;16.42;;;7.90;;
31424;SDS011;18054;51.572;7.372;2023-04-24T06:37:26;11.75;;;7.05;;
31424;SDS011;18054;51.572;7.372;2023-04-24T06:39:55;13.57;;;7.18;;
31424;SDS011;18054;51.572;7.372;2023-04-24T06:42:22;12.55;;;7.18;;
31424;SDS011;18054;51.572;7.372;2023-04-24T06:44:50;18.45;;;7.03;;
31424;SDS011;18054;51.572;7.372;2023-04-24T06:47:18;14.60;;;6.40;;
31424;SDS011;18054;51.572;7.372;2023-04-24T06:49:45;16.77;;;7.60;;
31424;SDS011;18054;51.572;7.372;2023-04-24T06:52:13;13.32;;;6.50;;
31424;SDS011;18054;51.572;7.372;2023-04-24T06:54:41;16.02;;;6.25;;
31424;SDS011;18054;51.572;7.372;2023-04-24T06:59:38;11.32;;;6.60;;
31424;SDS011;18054;51.572;7.372;2023-04-24T07:02:05;11.90;;;5.90;;
31424;SDS011;18054;51.572;7.372;2023-04-24T07:04:33;9.00;;;5.70;;
31424;SDS011;18054;51.572;7.372;2023-04-24T07:07:00;12.93;;;5.90;;
31424;SDS011;18054;51.572;7.372;2023-04-24T07:09:28;13.13;;;5.43;;
31424;SDS011;18054;51.572;7.372;2023-04-24T07:11:55;11.25;;;5.90;;
31424;SDS011;18054;51.572;7.372;2023-04-24T07:14:23;10.55;;;5.70;;
31424;SDS011;18054;51.572;7.372;2023-04-24T07:16:52;8.32;;;4.75;;
31424;SDS011;18054;51.572;7.372;2023-04-24T07:19:19;10.35;;;5.28;;
31424;SDS011;18054;51.572;7.372;2023-04-24T07:21:47;15.63;;;5.22;;
31424;SDS011;18054;51.572;7.372;2023-04-24T07:24:14;7.30;;;4.50;;
31424;SDS011;18054;51.572;7.372;2023-04-24T07:26:41;9.40;;;4.82;;
31424;SDS011;18054;51.572;7.372;2023-04-24T07:29:09;8.35;;;4.97;;
31424;SDS011;18054;51.572;7.372;2023-04-24T07:31:36;6.72;;;4.15;;
31424;SDS011;18054;51.572;7.372;2023-04-24T07:34:05;12.80;;;4.57;;
31424;SDS011;18054;51.572;7.372;2023-04-24T07:36:33;8.48;;;4.15;;
31424;SDS011;18054;51.572;7.372;2023-04-24T07:39:00;8.88;;;4.88;;
31424;SDS011;18054;51.572;7.372;2023-04-24T07:41:28;8.60;;;3.83;;
31424;SDS011;18054;51.572;7.372;2023-04-24T07:43:55;8.60;;;4.00;;
31424;SDS011;18054;51.572;7.372;2023-04-24T07:46:22;9.40;;;4.20;;
31424;SDS011;18054;51.572;7.372;2023-04-24T07:51:32;6.00;;;2.92;;
31424;SDS011;18054;51.572;7.372;2023-04-24T07:54:04;5.85;;;3.05;;
31424;SDS011;18054;51.572;7.372;2023-04-24T07:56:32;6.45;;;3.05;;
31424;SDS011;18054;51.572;7.372;2023-04-24T07:59:00;6.07;;;2.15;;
31424;SDS011;18054;51.572;7.372;2023-04-24T08:01:28;3.72;;;1.98;;
31424;SDS011;18054;51.572;7.372;2023-04-24T08:03:55;3.78;;;1.95;;
31424;SDS011;18054;51.572;7.372;2023-04-24T08:06:23;5.15;;;1.80;;
31424;SDS011;18054;51.572;7.372;2023-04-24T08:08:55;3.25;;;1.75;;
31424;SDS011;18054;51.572;7.372;2023-04-24T08:11:23;3.63;;;1.67;;
31424;SDS011;18054;51.572;7.372;2023-04-24T08:13:50;4.47;;;1.90;;
31424;SDS011;18054;51.572;7.372;2023-04-24T08:16:18;7.65;;;2.00;;
31424;SDS011;18054;51.572;7.372;2023-04-24T08:18:45;4.45;;;2.00;;
31424;SDS011;18054;51.572;7.372;2023-04-24T08:21:13;3.83;;;1.77;;
31424;SDS011;18054;51.572;7.372;2023-04-24T08:23:43;4.65;;;1.50;;
31424;SDS011;18054;51.572;7.372;2023-04-24T08:26:12;3.15;;;1.10;;
31424;SDS011;18054;51.572;7.372;2023-04-24T08:28:40;2.45;;;1.00;;
31424;SDS011;18054;51.572;7.372;2023-04-24T08:31:07;1.73;;;0.77;;
31424;SDS011;18054;51.572;7.372;2023-04-24T08:33:34;2.30;;;0.77;;
31424;SDS011;18054;51.572;7.372;2023-04-24T08:36:02;2.08;;;0.82;;
31424;SDS011;18054;51.572;7.372;2023-04-24T08:38:30;1.10;;;0.63;;
31424;SDS011;18054;51.572;7.372;2023-04-24T08:40:58;1.40;;;0.70;;
31424;SDS011;18054;51.572;7.372;2023-04-24T08:43:27;1.33;;;0.90;;
31424;SDS011;18054;51.572;7.372;2023-04-24T08:45:55;1.13;;;0.68;;
31424;SDS011;18054;51.572;7.372;2023-04-24T08:48:23;2.22;;;0.90;;
31424;SDS011;18054;51.572;7.372;2023-04-24T08:50:57;3.03;;;0.85;;
31424;SDS011;18054;51.572;7.372;2023-04-24T08:55:52;1.08;;;0.60;;
31424;SDS011;18054;51.572;7.372;2023-04-24T08:58:21;3.35;;;0.68;;
31424;SDS011;18054;51.572;7.372;2023-04-24T09:00:51;1.40;;;0.90;;
31424;SDS011;18054;51.572;7.372;2023-04-24T09:03:19;2.10;;;0.95;;
31424;SDS011;18054;51.572;7.372;2023-04-24T09:05:48;5.93;;;1.00;;
31424;SDS011;18054;51.572;7.372;2023-04-24T09:08:17;1.33;;;0.82;;
31424;SDS011;18054;51.572;7.372;2023-04-24T09:10:45;1.58;;;0.80;;
31424;SDS011;18054;51.572;7.372;2023-04-24T09:13:16;3.05;;;1.00;;
31424;SDS011;18054;51.572;7.372;2023-04-24T09:15:44;1.80;;;1.10;;
31424;SDS011;18054;51.572;7.372;2023-04-24T09:18:13;2.88;;;1.10;;
31424;SDS011;18054;51.572;7.372;2023-04-24T09:20:56;2.75;;;1.40;;
31424;SDS011;18054;51.572;7.372;2023-04-24T09:23:25;6.20;;;1.63;;
31424;SDS011;18054;51.572;7.372;2023-04-24T09:25:54;5.40;;;1.80;;
31424;SDS011;18054;51.572;7.372;2023-04-24T09:28:24;4.43;;;2.25;;
31424;SDS011;18054;51.572;7.372;2023-04-24T09:31:01;6.93;;;2.15;;
31424;SDS011;18054;51.572;7.372;2023-04-24T09:33:30;4.28;;;2.53;;
31424;SDS011;18054;51.572;7.372;2023-04-24T09:35:58;5.32;;;2.50;;
31424;SDS011;18054;51.572;7.372;2023-04-24T09:38:33;4.10;;;2.58;;
31424;SDS011;18054;51.572;7.372;2023-04-24T09:41:01;6.22;;;3.10;;
31424;SDS011;18054;51.572;7.372;2023-04-24T09:43:30;6.70;;;3.13;;
31424;SDS011;18054;51.572;7.372;2023-04-24T09:45:57;8.43;;;3.15;;
31424;SDS011;18054;51.572;7.372;2023-04-24T09:48:33;8.02;;;3.17;;
31424;SDS011;18054;51.572;7.372;2023-04-24T09:51:01;7.22;;;3.55;;
31424;SDS011;18054;51.572;7.372;2023-04-24T09:53:29;9.65;;;3.67;;
31424;SDS011;18054;51.572;7.372;2023-04-24T09:56:02;5.90;;;3.00;;
31424;SDS011;18054;51.572;7.372;2023-04-24T09:58:29;5.75;;;2.28;;
31424;SDS011;18054;51.572;7.372;2023-04-24T10:00:57;6.32;;;3.17;;
31424;SDS011;18054;51.572;7.372;2023-04-24T10:03:25;5.93;;;2.78;;
31424;SDS011;18054;51.572;7.372;2023-04-24T10:05:54;5.00;;;2.42;;
31424;SDS011;18054;51.572;7.372;2023-04-24T10:08:25;11.82;;;1.83;;
31424;SDS011;18054;51.572;7.372;2023-04-24T10:10:53;4.05;;;1.85;;
31424;SDS011;18054;51.572;7.372;2023-04-24T10:13:20;4.00;;;2.05;;
31424;SDS011;18054;51.572;7.372;2023-04-24T10:15:48;10.38;;;2.53;;
31424;SDS011;18054;51.572;7.372;2023-04-24T10:18:16;10.27;;;2.88;;
31424;SDS011;18054;51.572;7.372;2023-04-24T10:20:44;6.05;;;2.70;;
31424;SDS011;18054;51.572;7.372;2023-04-24T10:25:40;7.20;;;3.28;;
31424;SDS011;18054;51.572;7.372;2023-04-24T10:28:08;6.25;;;3.30;;
31424;SDS011;18054;51.572;7.372;2023-04-24T10:30:36;11.05;;;3.22;;
31424;SDS011;18054;51.572;7.372;2023-04-24T10:33:04;8.00;;;3.65;;
31424;SDS011;18054;51.572;7.372;2023-04-24T10:35:34;7.22;;;4.10;;
31424;SDS011;18054;51.572;7.372;2023-04-24T10:38:03;6.53;;;3.47;;
31424;SDS011;18054;51.572;7.372;2023-04-24T10:40:31;7.72;;;3.78;;
31424;SDS011;18054;51.572;7.372;2023-04-24T10:43:01;7.70;;;3.63;;
31424;SDS011;18054;51.572;7.372;2023-04-24T10:45:29;11.32;;;4.13;;
31424;SDS011;18054;51.572;7.372;2023-04-24T10:47:57;9.00;;;4.00;;
31424;SDS011;18054;51.572;7.372;2023-04-24T10:50:25;8.77;;;4.45;;
31424;SDS011;18054;51.572;7.372;2023-04-24T10:52:53;8.95;;;4.80;;
31424;SDS011;18054;51.572;7.372;2023-04-24T10:55:42;16.50;;;5.72;;
31424;SDS011;18054;51.572;7.372;2023-04-24T10:58:11;12.23;;;6.03;;
31424;SDS011;18054;51.572;7.372;2023-04-24T11:00:39;9.10;;;5.53;;
31424;SDS011;18054;51.572;7.372;2023-04-24T11:03:12;13.07;;;6.57;;
31424;SDS011;18054;51.572;7.372;2023-04-24T11:05:55;11.38;;;5.68;;
31424;SDS011;18054;51.572;7.372;2023-04-24T11:08:23;14.65;;;6.00;;
31424;SDS011;18054;51.572;7.372;2023-04-24T11:10:56;10.70;;;5.70;;
31424;SDS011;18054;51.572;7.372;2023-04-24T11:13:25;10.05;;;5.40;;
31424;SDS011;18054;51.572;7.372;2023-04-24T11:18:38;19.75;;;6.18;;
31424;SDS011;18054;51.572;7.372;2023-04-24T11:23:35;15.02;;;5.95;;
31424;SDS011;18054;51.572;7.372;2023-04-24T11:26:09;15.27;;;6.68;;
31424;SDS011;18054;51.572;7.372;2023-04-24T11:28:38;18.27;;;6.57;;
31424;SDS011;18054;51.572;7.372;2023-04-24T11:33:57;27.17;;;7.20;;
31424;SDS011;18054;51.572;7.372;2023-04-24T11:36:32;19.00;;;6.57;;
31424;SDS011;18054;51.572;7.372;2023-04-24T11:39:00;19.27;;;7.05;;
31424;SDS011;18054;51.572;7.372;2023-04-24T11:41:27;22.80;;;8.30;;
31424;SDS011;18054;51.572;7.372;2023-04-24T11:43:56;15.75;;;6.35;;
31424;SDS011;18054;51.572;7.372;2023-04-24T11:46:26;20.42;;;6.50;;
31424;SDS011;18054;51.572;7.372;2023-04-24T11:48:54;29.65;;;7.85;;
31424;SDS011;18054;51.572;7.372;2023-04-24T11:51:22;27.27;;;7.63;;
31424;SDS011;18054;51.572;7.372;2023-04-24T11:53:49;21.27;;;7.25;;
31424;SDS011;18054;51.572;7.372;2023-04-24T11:56:26;33.25;;;8.35;;
31424;SDS011;18054;51.572;7.372;2023-04-24T11:58:54;21.83;;;7.47;;
31424;SDS011;18054;51.572;7.372;2023-04-24T12:01:23;21.58;;;6.95;;
31424;SDS011;18054;51.572;7.372;2023-04-24T12:03:50;25.58;;;7.28;;
31424;SDS011;18054;51.572;7.372;2023-04-24T12:06:18;25.15;;;7.13;;
31424;SDS011;18054;51.572;7.372;2023-04-24T12:08:47;18.73;;;6.30;;
31424;SDS011;18054;51.572;7.372;2023-04-24T12:13:42;24.30;;;7.88;;
31424;SDS011;18054;51.572;7.372;2023-04-24T12:16:09;30.08;;;7.95;;
31424;SDS011;18054;51.572;7.372;2023-04-24T12:18:42;23.88;;;7.18;;
31424;SDS011;18054;51.572;7.372;2023-04-24T12:21:17;25.92;;;8.07;;
31424;SDS011;18054;51.572;7.372;2023-04-24T12:23:48;15.75;;;5.68;;
31424;SDS011;18054;51.572;7.372;2023-04-24T12:26:17;15.20;;;5.47;;
31424;SDS011;18054;51.572;7.372;2023-04-24T12:28:46;16.77;;;4.93;;
31424;SDS011;18054;51.572;7.372;2023-04-24T12:31:14;14.25;;;3.70;;
31424;SDS011;18054;51.572;7.372;2023-04-24T12:33:43;14.77;;;4.65;;
31424;SDS011;18054;51.572;7.372;2023-04-24T12:36:11;15.57;;;4.35;;
31424;SDS011;18054;51.572;7.372;2023-04-24T12:38:39;14.45;;;4.72;;
31424;SDS011;18054;51.572;7.372;2023-04-24T12:41:11;11.02;;;3.40;;
31424;SDS011;18054;51.572;7.372;2023-04-24T12:43:50;13.80;;;4.00;;
31424;SDS011;18054;51.572;7.372;2023-04-24T12:46:18;15.55;;;4.05;;
31424;SDS011;18054;51.572;7.372;2023-04-24T12:48:49;12.80;;;3.33;;
31424;SDS011;18054;51.572;7.372;2023-04-24T12:51:17;11.18;;;2.80;;
31424;SDS011;18054;51.572;7.372;2023-04-24T12:53:44;12.23;;;2.72;;
31424;SDS011;18054;51.572;7.372;2023-04-24T12:56:12;12.23;;;3.58;;
31424;SDS011;18054;51.572;7.372;2023-04-24T12:58:40;14.55;;;3.90;;
31424;SDS011;18054;51.572;7.372;2023-04-24T13:01:07;14.57;;;3.65;;
31424;SDS011;18054;51.572;7.372;2023-04-24T13:03:35;8.35;;;3.28;;
31424;SDS011;18054;51.572;7.372;2023-04-24T13:06:04;18.77;;;4.60;;
31424;SDS011;18054;51.572;7.372;2023-04-24T13:08:31;10.73;;;3.80;;
31424;SDS011;18054;51.572;7.372;2023-04-24T13:10:58;10.38;;;3.72;;
31424;SDS011;18054;51.572;7.372;2023-04-24T13:13:26;19.67;;;3.60;;
31424;SDS011;18054;51.572;7.372;2023-04-24T13:15:53;12.25;;;3.95;;
31424;SDS011;18054;51.572;7.372;2023-04-24T13:18:21;8.27;;;3.25;;
31424;SDS011;18054;51.572;7.372;2023-04-24T13:20:48;7.10;;;2.50;;
31424;SDS011;18054;51.572;7.372;2023-04-24T13:23:17;11.00;;;2.88;;
31424;SDS011;18054;51.572;7.372;2023-04-24T13:25:44;7.85;;;2.22;;
31424;SDS011;18054;51.572;7.372;2023-04-24T13:28:13;9.52;;;2.72;;
31424;SDS011;18054;51.572;7.372;2023-04-24T13:30:40;6.18;;;2.10;;
31424;SDS011;18054;51.572;7.372;2023-04-24T13:33:08;8.27;;;1.95;;
31424;SDS011;18054;51.572;7.372;2023-04-24T13:35:36;11.23;;;2.65;;
31424;SDS011;18054;51.572;7.372;2023-04-24T13:38:03;8.18;;;1.92;;
31424;SDS011;18054;51.572;7.372;2023-04-24T13:40:34;7.47;;;2.17;;
31424;SDS011;18054;51.572;7.372;2023-04-24T13:43:01;10.38;;;2.05;;
31424;SDS011;18054;51.572;7.372;2023-04-24T13:45:29;9.70;;;2.30;;
31424;SDS011;18054;51.572;7.372;2023-04-24T13:47:56;9.90;;;2.20;;
31424;SDS011;18054;51.572;7.372;2023-04-24T13:50:24;5.95;;;2.10;;
31424;SDS011;18054;51.572;7.372;2023-04-24T13:52:51;6.63;;;2.38;;
31424;SDS011;18054;51.572;7.372;2023-04-24T13:55:20;8.80;;;2.60;;
31424;SDS011;18054;51.572;7.372;2023-04-24T13:57:49;11.30;;;2.53;;
31424;SDS011;18054;51.572;7.372;2023-04-24T14:00:16;7.70;;;1.90;;
31424;SDS011;18054;51.572;7.372;2023-04-24T14:02:44;6.75;;;2.33;;
31424;SDS011;18054;51.572;7.372;2023-04-24T14:05:12;9.93;;;2.33;;
31424;SDS011;18054;51.572;7.372;2023-04-24T14:07:40;10.32;;;1.92;;
31424;SDS011;18054;51.572;7.372;2023-04-24T14:10:07;8.98;;;2.70;;
31424;SDS011;18054;51.572;7.372;2023-04-24T14:15:04;4.78;;;2.00;;
31424;SDS011;18054;51.572;7.372;2023-04-24T14:17:32;8.45;;;2.47;;
31424;SDS011;18054;51.572;7.372;2023-04-24T14:19:59;15.35;;;3.72;;
31424;SDS011;18054;51.572;7.372;2023-04-24T14:22:27;10.90;;;3.45;;
31424;SDS011;18054;51.572;7.372;2023-04-24T14:24:55;9.25;;;2.90;;
31424;SDS011;18054;51.572;7.372;2023-04-24T14:27:24;8.57;;;2.60;;
31424;SDS011;18054;51.572;7.372;2023-04-24T14:29:51;9.70;;;2.85;;
31424;SDS011;18054;51.572;7.372;2023-04-24T14:32:20;11.63;;;2.97;;
31424;SDS011;18054;51.572;7.372;2023-04-24T14:34:47;8.38;;;3.20;;
31424;SDS011;18054;51.572;7.372;2023-04-24T14:37:15;11.10;;;3.20;;
31424;SDS011;18054;51.572;7.372;2023-04-24T14:39:42;6.70;;;3.03;;
31424;SDS011;18054;51.572;7.372;2023-04-24T14:42:21;9.63;;;3.10;;
31424;SDS011;18054;51.572;7.372;2023-04-24T14:44:49;7.88;;;2.92;;
31424;SDS011;18054;51.572;7.372;2023-04-24T14:47:16;12.13;;;3.17;;
31424;SDS011;18054;51.572;7.372;2023-04-24T14:49:48;11.80;;;3.00;;
31424;SDS011;18054;51.572;7.372;2023-04-24T14:52:16;13.35;;;3.25;;
31424;SDS011;18054;51.572;7.372;2023-04-24T14:54:43;11.27;;;3.00;;
31424;SDS011;18054;51.572;7.372;2023-04-24T14:57:11;11.68;;;3.60;;
31424;SDS011;18054;51.572;7.372;2023-04-24T14:59:41;14.32;;;3.80;;
31424;SDS011;18054;51.572;7.372;2023-04-24T15:02:09;19.35;;;4.40;;
31424;SDS011;18054;51.572;7.372;2023-04-24T15:04:42;11.40;;;2.70;;
31424;SDS011;18054;51.572;7.372;2023-04-24T15:09:38;15.07;;;3.72;;
31424;SDS011;18054;51.572;7.372;2023-04-24T15:12:06;9.02;;;4.18;;
31424;SDS011;18054;51.572;7.372;2023-04-24T15:14:33;6.47;;;3.25;;
31424;SDS011;18054;51.572;7.372;2023-04-24T15:17:01;7.40;;;3.80;;
31424;SDS011;18054;51.572;7.372;2023-04-24T15:19:28;9.13;;;3.35;;
31424;SDS011;18054;51.572;7.372;2023-04-24T15:21:56;10.55;;;3.20;;
31424;SDS011;18054;51.572;7.372;2023-04-24T15:24:23;10.70;;;3.22;;
31424;SDS011;18054;51.572;7.372;2023-04-24T15:26:52;6.82;;;3.05;;
31424;SDS011;18054;51.572;7.372;2023-04-24T15:29:20;6.95;;;2.90;;
31424;SDS011;18054;51.572;7.372;2023-04-24T15:31:47;7.07;;;2.80;;
31424;SDS011;18054;51.572;7.372;2023-04-24T15:34:15;7.05;;;3.03;;
31424;SDS011;18054;51.572;7.372;2023-04-24T15:36:42;7.35;;;2.40;;
31424;SDS011;18054;51.572;7.372;2023-04-24T15:39:10;5.00;;;2.17;;
31424;SDS011;18054;51.572;7.372;2023-04-24T15:41:37;6.40;;;1.85;;